Time;durP1;ratioP1;P1;durP2;ratioP2;P2;SDS_P1;SDS_P2;PMS_P1;PMS_P2;Temp;Humidity;BMP_temperature;BMP_pressure;BME280_temperature;BME280_humidity;BME280_pressure;Samples;Min_cycle;Max_cycle;Signal;HPM_P1;HPM_P2
2022/06/13 00:01:51;;;;;;;0.30;0.30;;;14.00;99.90;;;;;;5073230;28;20109;-74
2022/06/13 00:04:16;;;;;;;0.30;0.30;;;13.90;99.90;;;;;;5055423;28;20061;-76
2022/06/13 00:06:43;;;;;;;0.30;0.30;;;13.90;99.90;;;;;;5073234;28;20467;-73
2022/06/13 00:09:10;;;;;;;0.38;0.38;;;13.90;99.90;;;;;;5073285;28;20045;-77
2022/06/13 00:11:36;;;;;;;0.40;0.40;;;13.90;99.90;;;;;;5073387;28;20045;-75
2022/06/13 00:14:02;;;;;;;0.30;0.30;;;14.00;99.90;;;;;;5073374;28;20040;-72
2022/06/13 00:16:28;;;;;;;0.30;0.30;;;13.90;99.90;;;;;;5073407;28;20048;-76
2022/06/13 00:18:54;;;;;;;0.30;0.30;;;13.80;99.90;;;;;;5073238;28;20041;-77
2022/06/13 00:21:29;;;;;;;0.50;0.50;;;13.80;99.90;;;;;;5076411;28;20036;-74
2022/06/13 00:23:55;;;;;;;0.30;0.30;;;13.80;99.90;;;;;;5076947;28;20045;-75
2022/06/13 00:26:22;;;;;;;0.30;0.30;;;14.00;99.90;;;;;;5076839;28;20045;-78
2022/06/13 00:28:49;;;;;;;0.40;0.40;;;13.80;99.90;;;;;;5076819;28;20282;-76
2022/06/13 00:31:15;;;;;;;0.30;0.30;;;13.90;99.90;;;;;;5076606;28;20041;-75
2022/06/13 00:33:41;;;;;;;0.40;0.40;;;13.80;99.90;;;;;;5076819;28;20044;-76
2022/06/13 00:36:07;;;;;;;0.40;0.40;;;13.80;99.90;;;;;;5076652;28;20488;-74
2022/06/13 00:38:33;;;;;;;0.30;0.30;;;13.80;99.90;;;;;;5076628;28;20045;-71
2022/06/13 00:40:58;;;;;;;0.40;0.40;;;14.10;99.90;;;;;;5076687;28;20045;-75
2022/06/13 00:43:24;;;;;;;0.30;0.30;;;13.90;99.90;;;;;;5076546;28;20442;-77
2022/06/13 00:45:50;;;;;;;0.38;0.38;;;13.80;99.90;;;;;;5077020;28;20055;-78
2022/06/13 00:48:18;;;;;;;0.40;0.40;;;13.90;99.90;;;;;;5076688;28;20047;-74
2022/06/13 00:50:56;;;;;;;0.30;0.30;;;13.90;99.90;;;;;;5076407;28;20041;-73
2022/06/13 00:53:31;;;;;;;0.40;0.40;;;13.90;99.90;;;;;;5076307;28;20044;-77
2022/06/13 00:56:01;;;;;;;0.30;0.30;;;13.90;99.90;;;;;;5076820;28;20052;-75
2022/06/13 00:58:29;;;;;;;0.40;0.40;;;13.90;99.90;;;;;;5076269;28;20056;-76
2022/06/13 01:00:57;;;;;;;0.30;0.30;;;13.90;99.90;;;;;;5076321;28;20084;-76
2022/06/13 01:03:25;;;;;;;1.50;0.60;;;13.90;99.90;;;;;;5075972;28;20044;-76
2022/06/13 01:05:51;;;;;;;0.30;0.30;;;13.90;99.90;;;;;;5076494;28;20848;-75
2022/06/13 01:08:20;;;;;;;0.38;0.35;;;13.90;99.90;;;;;;5075946;28;20048;-75
2022/06/13 01:13:50;;;;;;;0.50;0.50;;;13.90;99.90;;;;;;5075998;28;20054;-74
2022/06/13 01:16:44;;;;;;;0.30;0.30;;;13.90;99.90;;;;;;5075807;28;20049;-75
2022/06/13 01:19:34;;;;;;;0.40;0.40;;;13.90;99.90;;;;;;5076122;28;20037;-72
2022/06/13 01:22:34;;;;;;;0.30;0.30;;;13.90;99.90;;;;;;5075766;28;20047;-77
2022/06/13 01:25:43;;;;;;;0.30;0.30;;;13.90;99.90;;;;;;5075685;28;20052;-73
2022/06/13 01:28:43;;;;;;;0.38;0.38;;;14.00;99.90;;;;;;4974953;28;20495;-73
2022/06/13 01:31:14;;;;;;;0.30;0.30;;;14.00;99.90;;;;;;4974687;28;20071;-75
2022/06/13 01:33:58;;;;;;;0.30;0.30;;;14.00;99.90;;;;;;5052511;28;20079;-75
2022/06/13 01:36:43;;;;;;;0.68;0.50;;;14.00;99.90;;;;;;5075658;28;20048;-78
2022/06/13 01:39:51;;;;;;;0.30;0.30;;;14.00;99.90;;;;;;5075514;28;20084;-79
2022/06/13 01:42:30;;;;;;;0.50;0.50;;;14.00;99.90;;;;;;5074832;28;20113;-75
2022/06/13 01:44:58;;;;;;;0.30;0.30;;;13.90;99.90;;;;;;5075741;28;20043;-78
2022/06/13 01:47:42;;;;;;;0.30;0.30;;;14.00;99.90;;;;;;5075211;28;20079;-75
2022/06/13 01:50:16;;;;;;;0.30;0.30;;;13.90;99.90;;;;;;5057380;28;20052;-76
2022/06/13 01:53:05;;;;;;;0.30;0.30;;;14.00;99.90;;;;;;5075272;28;20040;-76
2022/06/13 01:55:47;;;;;;;1.23;0.80;;;14.00;99.90;;;;;;5075434;28;20131;-74
2022/06/13 01:58:44;;;;;;;0.40;0.40;;;14.00;99.90;;;;;;5074725;28;20059;-74
2022/06/13 02:01:26;;;;;;;0.30;0.30;;;14.00;99.90;;;;;;5064333;28;20516;-76
2022/06/13 02:04:17;;;;;;;0.30;0.30;;;13.90;99.90;;;;;;5074817;28;20158;-78
2022/06/13 02:07:11;;;;;;;0.30;0.30;;;13.90;99.90;;;;;;5063704;28;20504;-77
2022/06/13 02:09:44;;;;;;;0.30;0.30;;;13.90;99.90;;;;;;5070250;28;20055;-74
2022/06/13 02:12:12;;;;;;;0.40;0.40;;;13.90;99.90;;;;;;5074899;28;20059;-77
2022/06/13 02:14:43;;;;;;;0.30;0.30;;;13.90;99.90;;;;;;5074676;28;20175;-76
2022/06/13 02:17:20;;;;;;;0.55;0.55;;;13.90;99.90;;;;;;5075163;28;20393;-76
2022/06/13 02:20:05;;;;;;;;;;;14.00;99.90;;;;;;5075158;28;20135;-78
2022/06/13 02:22:45;;;;;;;0.40;0.40;;;13.90;99.90;;;;;;5074655;28;19960;-77
2022/06/13 02:25:19;;;;;;;0.40;0.40;;;13.90;99.90;;;;;;5074374;28;20461;-75
2022/06/13 02:28:01;;;;;;;0.30;0.30;;;13.90;99.90;;;;;;5074939;28;20086;-77
2022/06/13 02:30:33;;;;;;;0.40;0.40;;;13.90;99.90;;;;;;5074837;28;20048;-73
2022/06/13 02:33:09;;;;;;;0.30;0.30;;;13.90;99.90;;;;;;5074725;28;20388;-78
2022/06/13 02:35:40;;;;;;;0.50;0.50;;;13.90;99.90;;;;;;5074470;28;20508;-77
2022/06/13 02:38:11;;;;;;;0.40;0.40;;;13.90;99.90;;;;;;5074830;28;20037;-78
2022/06/13 02:41:00;;;;;;;0.30;0.30;;;13.90;99.90;;;;;;5074947;28;20439;-74
2022/06/13 02:43:48;;;;;;;0.40;0.40;;;13.90;99.90;;;;;;5073722;28;20131;-75
2022/06/13 02:46:24;;;;;;;0.30;0.30;;;13.90;99.90;;;;;;5074085;28;20044;-74
2022/06/13 02:48:55;;;;;;;0.50;0.50;;;13.90;99.90;;;;;;5074138;28;20416;-76
2022/06/13 02:51:42;;;;;;;0.40;0.40;;;13.90;99.90;;;;;;5074293;28;20535;-76
2022/06/13 02:54:17;;;;;;;0.30;0.30;;;13.80;99.90;;;;;;5074216;28;20131;-76
2022/06/13 02:57:24;;;;;;;0.30;0.30;;;13.80;99.90;;;;;;5074147;28;20120;-76
2022/06/13 03:00:02;;;;;;;0.32;0.32;;;13.70;99.90;;;;;;5074012;28;20043;-74
2022/06/13 03:02:37;;;;;;;;;;;13.70;99.90;;;;;;5074421;28;20162;-75
2022/06/13 03:05:16;;;;;;;0.30;0.30;;;13.60;99.90;;;;;;5074017;28;19921;-76
2022/06/13 03:07:54;;;;;;;0.40;0.40;;;13.60;99.90;;;;;;5074283;28;20451;-75
2022/06/13 03:10:23;;;;;;;0.40;0.40;;;13.50;99.90;;;;;;5074098;28;20148;-76
2022/06/13 03:13:07;;;;;;;0.30;0.30;;;13.50;99.90;;;;;;5073953;28;20076;-74
2022/06/13 03:15:41;;;;;;;0.40;0.40;;;13.50;99.90;;;;;;5073767;28;20496;-78
2022/06/13 03:18:28;;;;;;;0.38;0.38;;;13.50;99.90;;;;;;5073882;28;20052;-72
2022/06/13 03:21:09;;;;;;;0.30;0.30;;;13.50;99.90;;;;;;5074030;28;20098;-76
2022/06/13 03:23:57;;;;;;;0.40;0.40;;;13.50;99.90;;;;;;5073721;28;20060;-74
2022/06/13 03:26:33;;;;;;;0.43;0.43;;;13.50;99.90;;;;;;5073933;28;20093;-75
2022/06/13 03:29:02;;;;;;;0.30;0.30;;;13.50;99.90;;;;;;5073644;28;20049;-75
2022/06/13 03:31:36;;;;;;;0.30;0.30;;;13.50;99.90;;;;;;5073636;28;20045;-74
2022/06/13 03:34:07;;;;;;;0.30;0.30;;;13.50;99.90;;;;;;5073706;28;20498;-75
2022/06/13 03:36:42;;;;;;;0.52;0.52;;;13.50;99.90;;;;;;5074094;28;20041;-73
2022/06/13 03:39:17;;;;;;;0.30;0.30;;;13.50;99.90;;;;;;5073606;28;20048;-76
2022/06/13 03:41:52;;;;;;;0.75;0.60;;;13.50;99.90;;;;;;5073482;28;20484;-74
2022/06/13 03:44:28;;;;;;;0.50;0.50;;;13.50;99.90;;;;;;5073573;28;20473;-74
2022/06/13 03:46:59;;;;;;;0.30;0.30;;;13.70;99.90;;;;;;5073899;28;20040;-76
2022/06/13 03:49:56;;;;;;;0.30;0.30;;;13.50;99.90;;;;;;5073480;28;20094;-76
2022/06/13 03:52:25;;;;;;;0.40;0.40;;;13.50;99.90;;;;;;5036221;28;20115;-76
2022/06/13 03:54:57;;;;;;;0.35;0.35;;;13.50;99.90;;;;;;5074495;28;20115;-76
2022/06/13 03:57:27;;;;;;;0.35;0.35;;;13.70;99.90;;;;;;5077951;28;20079;-75
2022/06/13 03:59:59;;;;;;;0.40;0.40;;;13.70;99.90;;;;;;5077647;28;20091;-74
2022/06/13 04:02:29;;;;;;;0.32;0.32;;;13.60;99.90;;;;;;5077522;28;20078;-76
2022/06/13 04:04:55;;;;;;;0.30;0.30;;;13.60;99.90;;;;;;5077300;28;20143;-74
2022/06/13 04:07:23;;;;;;;0.30;0.30;;;13.60;99.90;;;;;;5077156;28;20052;-72
2022/06/13 04:09:53;;;;;;;0.30;0.30;;;13.60;99.90;;;;;;5077074;28;20415;-76
2022/06/13 04:12:40;;;;;;;0.30;0.30;;;13.60;99.90;;;;;;5077088;28;20049;-76
2022/06/13 04:15:40;;;;;;;0.30;0.30;;;13.60;99.90;;;;;;5077071;28;20070;-76
2022/06/13 04:18:14;;;;;;;0.77;0.77;;;13.60;99.90;;;;;;5076859;28;20098;-73
2022/06/13 04:20:46;;;;;;;0.30;0.30;;;13.70;99.90;;;;;;5076803;28;20080;-77
2022/06/13 04:23:37;;;;;;;0.50;0.50;;;13.60;99.90;;;;;;5076865;28;20049;-77
2022/06/13 04:26:32;;;;;;;0.50;0.50;;;13.60;99.90;;;;;;5037974;28;20049;-77
2022/06/13 04:29:16;;;;;;;0.55;0.55;;;13.70;99.90;;;;;;5076566;28;20527;-73
2022/06/13 04:31:42;;;;;;;0.30;0.30;;;13.60;99.90;;;;;;5076707;28;20040;-74
2022/06/13 04:34:19;;;;;;;0.30;0.30;;;13.70;99.90;;;;;;5076678;28;20052;-79
2022/06/13 04:36:47;;;;;;;0.30;0.30;;;13.80;99.90;;;;;;5076341;28;20496;-75
2022/06/13 04:39:15;;;;;;;0.30;0.30;;;13.80;99.90;;;;;;5076539;28;20070;-75
2022/06/13 04:41:45;;;;;;;0.40;0.40;;;13.80;99.90;;;;;;5076877;28;20436;-73
2022/06/13 04:44:19;;;;;;;1.40;0.63;;;13.90;99.90;;;;;;5076715;28;20109;-74
2022/06/13 04:46:46;;;;;;;0.30;0.30;;;13.90;99.90;;;;;;5076527;28;20462;-76
2022/06/13 04:49:39;;;;;;;0.50;0.50;;;13.90;99.90;;;;;;5076363;28;20052;-76
2022/06/13 04:52:09;;;;;;;0.30;0.30;;;13.90;99.90;;;;;;5058967;28;20052;-73
2022/06/13 04:54:37;;;;;;;0.32;0.32;;;14.00;99.90;;;;;;5076511;28;20052;-76
2022/06/13 04:57:04;;;;;;;4.78;1.00;;;14.10;99.90;;;;;;5076253;28;20067;-79
2022/06/13 04:59:30;;;;;;;0.30;0.30;;;14.10;99.90;;;;;;5076364;28;20048;-76
2022/06/13 05:01:57;;;;;;;0.60;0.60;;;14.20;99.90;;;;;;5076255;28;20051;-77
2022/06/13 05:04:27;;;;;;;;;;;14.30;99.90;;;;;;5076639;28;20059;-73
2022/06/13 05:06:55;;;;;;;0.30;0.30;;;14.40;99.90;;;;;;5075088;28;20394;-79
2022/06/13 05:09:31;;;;;;;0.30;0.30;;;14.50;99.90;;;;;;5076028;28;20087;-77
2022/06/13 05:12:18;;;;;;;0.30;0.30;;;14.70;99.90;;;;;;5075982;28;20047;-75
2022/06/13 05:14:59;;;;;;;0.52;0.52;;;14.90;99.90;;;;;;5075876;28;20507;-75
2022/06/13 05:17:36;;;;;;;0.30;0.30;;;15.00;99.90;;;;;;5076482;28;20496;-74
2022/06/13 05:20:30;;;;;;;0.50;0.50;;;15.10;99.90;;;;;;5076227;28;20072;-73
2022/06/13 05:23:32;;;;;;;0.47;0.47;;;15.10;99.90;;;;;;5075787;28;20053;-75
2022/06/13 05:26:00;;;;;;;0.30;0.30;;;15.20;99.90;;;;;;5057858;28;20472;-75
2022/06/13 05:28:29;;;;;;;0.30;0.30;;;15.20;99.90;;;;;;5075592;28;20048;-74
2022/06/13 05:30:57;;;;;;;0.30;0.30;;;15.10;99.90;;;;;;5075658;28;20072;-75
2022/06/13 05:33:26;;;;;;;0.30;0.30;;;15.30;99.90;;;;;;5075358;28;20052;-78
2022/06/13 05:35:54;;;;;;;0.30;0.30;;;15.40;99.90;;;;;;5075527;28;20124;-75
2022/06/13 05:38:30;;;;;;;0.52;0.52;;;15.70;99.90;;;;;;5075492;28;20600;-79
2022/06/13 05:40:56;;;;;;;0.30;0.30;;;15.90;99.90;;;;;;5075498;28;20484;-76
2022/06/13 05:43:22;;;;;;;0.30;0.30;;;16.30;99.90;;;;;;5075494;28;20050;-74
2022/06/13 05:45:47;;;;;;;0.38;0.38;;;16.70;99.90;;;;;;5075328;28;20117;-75
2022/06/13 05:48:15;;;;;;;0.30;0.30;;;17.00;99.90;;;;;;5075746;28;20472;-76
2022/06/13 05:50:42;;;;;;;0.30;0.30;;;17.40;99.90;;;;;;5075278;28;20063;-75
2022/06/13 05:53:12;;;;;;;0.30;0.30;;;17.60;99.90;;;;;;5075495;28;20435;-73
2022/06/13 05:55:39;;;;;;;1.00;0.77;;;17.60;99.90;;;;;;5075214;28;20452;-76
2022/06/13 05:58:04;;;;;;;0.30;0.30;;;17.90;99.90;;;;;;5075086;28;20040;-76
2022/06/13 06:00:41;;;;;;;0.30;0.30;;;18.10;99.90;;;;;;5075249;28;20044;-78
2022/06/13 06:03:07;;;;;;;0.30;0.30;;;18.40;99.90;;;;;;5075136;28;20044;-77
2022/06/13 06:05:33;;;;;;;0.30;0.30;;;18.40;99.90;;;;;;5075383;28;20180;-73
2022/06/13 06:07:58;;;;;;;0.97;0.87;;;18.40;99.90;;;;;;5074890;28;20548;-76
2022/06/13 06:10:29;;;;;;;0.53;0.53;;;18.50;99.90;;;;;;5074512;28;20044;-75
2022/06/13 06:12:55;;;;;;;0.47;0.47;;;18.60;99.90;;;;;;5074730;28;20049;-78
2022/06/13 06:15:21;;;;;;;0.30;0.30;;;18.40;99.90;;;;;;5074619;28;20052;-73
2022/06/13 06:17:47;;;;;;;0.30;0.30;;;18.30;99.90;;;;;;5074611;28;20055;-76
2022/06/13 06:20:17;;;;;;;0.77;0.70;;;18.20;99.90;;;;;;5074619;28;20084;-77
2022/06/13 06:22:43;;;;;;;3.33;1.30;;;18.10;99.90;;;;;;5074542;28;20056;-79
2022/06/13 06:25:09;;;;;;;0.30;0.30;;;18.00;99.90;;;;;;5074447;28;20045;-75
2022/06/13 06:27:35;;;;;;;0.40;0.40;;;18.10;99.90;;;;;;5074344;28;20045;-77
2022/06/13 06:30:01;;;;;;;0.30;0.30;;;18.20;99.90;;;;;;5074997;28;20481;-74
2022/06/13 06:32:26;;;;;;;0.53;0.47;;;18.30;99.90;;;;;;5074801;28;20044;-76
2022/06/13 06:34:52;;;;;;;0.30;0.30;;;18.30;99.90;;;;;;5074952;28;20049;-77
2022/06/13 06:37:18;;;;;;;0.50;0.50;;;18.30;99.90;;;;;;5074645;28;20087;-76
2022/06/13 06:39:43;;;;;;;0.30;0.30;;;18.60;99.90;;;;;;5074481;28;20053;-78
2022/06/13 06:42:09;;;;;;;0.70;0.70;;;18.80;99.90;;;;;;5074402;28;20115;-76
2022/06/13 06:44:35;;;;;;;0.63;0.60;;;18.70;99.90;;;;;;5074354;28;20050;-77
2022/06/13 06:47:00;;;;;;;32.60;0.97;;;18.70;99.90;;;;;;5074287;28;20098;-77
2022/06/13 06:49:26;;;;;;;0.30;0.30;;;18.50;99.90;;;;;;5056840;28;20080;-75
2022/06/13 06:51:52;;;;;;;0.20;0.20;;;18.60;99.90;;;;;;5073902;28;20046;-74
2022/06/13 06:59:54;;;;;;;0.30;0.30;;;18.30;99.90;;;;;;5035868;28;20048;-74
2022/06/13 07:02:23;;;;;;;0.30;0.30;;;18.20;99.90;;;;;;5074074;28;20572;-75
2022/06/13 07:04:59;;;;;;;0.30;0.30;;;18.00;99.90;;;;;;5074061;28;20057;-73
2022/06/13 07:07:25;;;;;;;0.40;0.40;;;17.90;99.90;;;;;;5073828;28;20427;-75
2022/06/13 07:09:51;;;;;;;0.30;0.30;;;17.80;99.90;;;;;;5073949;28;20075;-75
2022/06/13 07:12:17;;;;;;;0.30;0.30;;;17.90;99.90;;;;;;5074093;28;20481;-75
2022/06/13 07:14:44;;;;;;;0.30;0.30;;;18.00;99.90;;;;;;5074039;28;20052;-75
2022/06/13 07:17:11;;;;;;;0.30;0.30;;;18.10;99.90;;;;;;5074191;28;20044;-74
2022/06/13 07:19:37;;;;;;;;;;;18.20;99.90;;;;;;5074521;28;20084;-76
2022/06/13 07:22:04;;;;;;;0.30;0.30;;;18.10;99.90;;;;;;5073812;28;19978;-74
2022/06/13 07:24:31;;;;;;;0.30;0.30;;;18.00;99.90;;;;;;5073802;28;20051;-77
2022/06/13 07:26:57;;;;;;;0.30;0.30;;;17.90;99.90;;;;;;5073852;28;20045;-73
2022/06/13 07:29:23;;;;;;;0.30;0.30;;;17.70;99.90;;;;;;5073241;28;20047;-78
2022/06/13 07:31:58;;;;;;;0.30;0.30;;;17.50;99.90;;;;;;5074039;28;20056;-79
2022/06/13 07:34:29;;;;;;;0.30;0.30;;;17.40;99.90;;;;;;5073793;28;20085;-78
2022/06/13 07:36:57;;;;;;;0.30;0.30;;;17.00;99.90;;;;;;5073571;28;20041;-77
2022/06/13 07:39:23;;;;;;;0.40;0.40;;;16.80;99.90;;;;;;5073698;28;20051;-75
2022/06/13 07:41:49;;;;;;;0.60;0.60;;;16.40;99.90;;;;;;5073753;28;20048;-75
2022/06/13 07:44:20;;;;;;;;;;;16.00;99.90;;;;;;5074221;28;20049;-73
2022/06/13 07:46:46;;;;;;;0.30;0.30;;;15.90;99.90;;;;;;5073381;28;19928;-73
2022/06/13 07:49:13;;;;;;;0.30;0.30;;;15.60;99.90;;;;;;5073439;28;20044;-75
2022/06/13 07:51:39;;;;;;;0.30;0.30;;;15.60;99.90;;;;;;5073521;28;20048;-77
2022/06/13 07:54:05;;;;;;;0.40;0.40;;;15.60;99.90;;;;;;5073775;28;20048;-72
2022/06/13 07:56:31;;;;;;;0.30;0.30;;;15.60;99.90;;;;;;5073707;28;20447;-76
2022/06/13 07:58:58;;;;;;;0.30;0.30;;;15.60;99.90;;;;;;5073378;28;20287;-74
2022/06/13 08:01:24;;;;;;;0.30;0.30;;;15.60;99.90;;;;;;5073289;28;20442;-75
2022/06/13 08:03:51;;;;;;;0.30;0.30;;;15.90;99.90;;;;;;5073074;28;20041;-74
2022/06/13 08:06:18;;;;;;;0.30;0.30;;;16.10;99.90;;;;;;5073176;28;20404;-72
2022/06/13 08:08:45;;;;;;;0.30;0.30;;;16.20;99.90;;;;;;5073263;28;20044;-73
2022/06/13 08:11:14;;;;;;;0.30;0.30;;;16.40;99.90;;;;;;5073242;28;20080;-73
2022/06/13 08:13:40;;;;;;;0.30;0.30;;;16.60;99.90;;;;;;5073022;28;20079;-73
2022/06/13 08:16:07;;;;;;;0.30;0.30;;;16.80;99.90;;;;;;5073303;28;20091;-73
2022/06/13 08:18:33;;;;;;;0.30;0.30;;;17.00;99.90;;;;;;5073047;28;20568;-76
2022/06/13 08:20:58;;;;;;;0.30;0.30;;;17.30;99.90;;;;;;5073187;28;20053;-74
2022/06/13 08:23:24;;;;;;;0.30;0.30;;;17.50;99.90;;;;;;5073205;28;20461;-74
2022/06/13 08:25:50;;;;;;;0.20;0.20;;;17.80;99.90;;;;;;5073299;28;20234;-76
2022/06/13 08:28:16;;;;;;;0.30;0.30;;;18.10;99.90;;;;;;5072783;28;20511;-74
2022/06/13 08:30:49;;;;;;;0.30;0.30;;;18.30;99.90;;;;;;5073125;28;20076;-75
2022/06/13 08:33:15;;;;;;;0.30;0.30;;;18.50;99.90;;;;;;5073000;28;20049;-74
2022/06/13 08:35:41;;;;;;;0.30;0.30;;;18.60;99.90;;;;;;5073558;28;20174;-74
2022/06/13 08:38:07;;;;;;;0.30;0.30;;;18.60;99.90;;;;;;5073410;28;20040;-71
2022/06/13 08:40:59;;;;;;;0.30;0.30;;;18.80;99.90;;;;;;5072905;28;20055;-71
2022/06/13 08:43:54;;;;;;;0.30;0.30;;;18.90;99.90;;;;;;5076151;28;20078;-76
2022/06/13 08:46:24;;;;;;;0.30;0.30;;;19.00;99.90;;;;;;5076788;28;20048;-74
2022/06/13 08:49:09;;;;;;;0.20;0.20;;;18.70;99.90;;;;;;5076561;28;20041;-74
2022/06/13 08:51:49;;;;;;;0.30;0.30;;;19.10;99.90;;;;;;5076304;28;20052;-75
2022/06/13 08:54:21;;;;;;;0.30;0.30;;;19.20;99.90;;;;;;5076499;28;20079;-78
2022/06/13 08:56:49;;;;;;;0.30;0.30;;;19.20;99.90;;;;;;5076666;28;20153;-73
2022/06/13 08:59:34;;;;;;;0.20;0.20;;;18.90;99.90;;;;;;5076198;28;20048;-75
2022/06/13 09:02:18;;;;;;;0.20;0.20;;;18.80;99.90;;;;;;5076283;28;20051;-75
2022/06/13 09:04:48;;;;;;;0.20;0.20;;;18.70;99.90;;;;;;5076486;28;20056;-76
2022/06/13 09:07:32;;;;;;;0.30;0.30;;;18.80;99.90;;;;;;5076440;28;20091;-74
2022/06/13 09:10:26;;;;;;;0.30;0.30;;;18.70;99.90;;;;;;5076344;28;20044;-75
2022/06/13 09:12:56;;;;;;;0.30;0.30;;;18.50;99.90;;;;;;5076098;28;20426;-74
2022/06/13 09:15:33;;;;;;;0.60;0.60;;;18.60;99.90;;;;;;5075736;28;20423;-74
2022/06/13 09:18:19;;;;;;;0.30;0.30;;;18.70;99.90;;;;;;5076033;28;20413;-74
2022/06/13 09:20:56;;;;;;;0.30;0.30;;;18.90;99.90;;;;;;5075765;28;20055;-74
2022/06/13 09:23:32;;;;;;;0.30;0.30;;;19.00;99.90;;;;;;5075901;28;20052;-75
2022/06/13 09:26:33;;;;;;;0.30;0.30;;;19.20;99.90;;;;;;5076257;28;20045;-73
2022/06/13 09:29:10;;;;;;;0.30;0.30;;;19.00;99.90;;;;;;5075779;28;20040;-76
2022/06/13 09:31:45;;;;;;;0.30;0.30;;;18.60;99.90;;;;;;5075535;28;20484;-76
2022/06/13 09:34:19;;;;;;;2.25;2.15;;;18.20;99.90;;;;;;5076056;28;20132;-74
2022/06/13 09:36:54;;;;;;;0.30;0.30;;;18.10;99.90;;;;;;5075965;28;20051;-74
2022/06/13 09:39:20;;;;;;;1.17;1.08;;;18.10;99.90;;;;;;5075962;28;20179;-75
2022/06/13 09:41:48;;;;;;;1.03;0.90;;;18.20;99.90;;;;;;5057413;28;20486;-77
2022/06/13 09:44:44;;;;;;;0.90;0.52;;;18.20;99.90;;;;;;5075298;28;20480;-78
2022/06/13 09:47:16;;;;;;;0.30;0.30;;;18.30;99.90;;;;;;5075925;28;20145;-76
2022/06/13 09:50:04;;;;;;;0.20;0.20;;;18.50;99.90;;;;;;5075410;28;20080;-76
2022/06/13 09:53:02;;;;;;;0.30;0.30;;;18.80;99.90;;;;;;5075022;28;20048;-77
2022/06/13 09:55:45;;;;;;;0.30;0.30;;;19.00;99.90;;;;;;5075363;28;20056;-74
2022/06/13 09:58:35;;;;;;;0.20;0.20;;;19.20;99.90;;;;;;5075256;28;20040;-75
2022/06/13 10:01:08;;;;;;;0.30;0.30;;;19.40;99.90;;;;;;5075190;28;20059;-77
2022/06/13 10:03:57;;;;;;;0.25;0.25;;;19.60;99.90;;;;;;5075709;28;20404;-77
2022/06/13 10:06:45;;;;;;;0.20;0.20;;;19.70;99.50;;;;;;5061423;28;20094;-74
2022/06/13 10:09:30;;;;;;;0.30;0.30;;;19.80;99.80;;;;;;5057058;28;20048;-76
2022/06/13 10:11:58;;;;;;;0.68;0.60;;;20.10;99.90;;;;;;5075446;28;20055;-75
2022/06/13 10:14:29;;;;;;;0.30;0.30;;;20.30;98.60;;;;;;5074885;28;20040;-78
2022/06/13 10:17:29;;;;;;;0.40;0.40;;;20.20;98.50;;;;;;5074515;28;20044;-76
2022/06/13 10:20:01;;;;;;;0.30;0.30;;;19.80;98.10;;;;;;5074795;28;20393;-75
2022/06/13 10:22:54;;;;;;;0.30;0.30;;;19.50;98.50;;;;;;5074633;28;20127;-73
2022/06/13 10:25:38;;;;;;;0.30;0.30;;;19.30;99.00;;;;;;5074811;28;20059;-77
2022/06/13 10:28:31;;;;;;;0.77;0.77;;;19.60;99.90;;;;;;5074540;28;20041;-75
2022/06/13 10:31:28;;;;;;;0.30;0.30;;;19.90;99.90;;;;;;5074728;28;20048;-75
2022/06/13 10:34:38;;;;;;;0.30;0.30;;;20.20;99.90;;;;;;5074748;28;20041;-73
2022/06/13 10:37:06;;;;;;;;;;;20.40;97.70;;;;;;5074844;28;20271;-73
2022/06/13 10:39:32;;;;;;;0.43;0.43;;;20.30;98.00;;;;;;5074391;28;19921;-73
2022/06/13 10:42:06;;;;;;;0.20;0.20;;;20.50;97.30;;;;;;5073995;28;20047;-77
2022/06/13 10:44:33;;;;;;;2.35;0.88;;;20.60;96.70;;;;;;5074389;28;20500;-78
2022/06/13 10:47:08;;;;;;;1.95;0.90;;;20.80;96.40;;;;;;5074056;28;20424;-77
2022/06/13 10:49:42;;;;;;;0.20;0.20;;;21.00;96.40;;;;;;5074677;28;20115;-73
2022/06/13 10:52:23;;;;;;;0.20;0.20;;;21.20;95.50;;;;;;5074128;28;20135;-76
2022/06/13 10:54:59;;;;;;;0.20;0.20;;;21.00;94.20;;;;;;5074212;28;20178;-75
2022/06/13 10:57:32;;;;;;;0.20;0.20;;;20.90;94.10;;;;;;5074125;28;20045;-76
2022/06/13 11:00:28;;;;;;;0.40;0.40;;;20.90;94.10;;;;;;5074100;28;20508;-78
2022/06/13 11:03:11;;;;;;;1.65;0.73;;;20.80;94.70;;;;;;5053635;28;20434;-79
2022/06/13 11:05:59;;;;;;;0.22;0.22;;;20.80;96.00;;;;;;5073422;28;20057;-73
2022/06/13 11:08:27;;;;;;;0.20;0.20;;;20.90;95.30;;;;;;5074098;28;20097;-73
2022/06/13 11:10:56;;;;;;;0.20;0.20;;;21.10;94.20;;;;;;5074259;28;20045;-74
2022/06/13 11:13:37;;;;;;;0.57;0.57;;;21.00;92.90;;;;;;5073958;28;20041;-77
2022/06/13 11:24:33;;;;;;;0.30;0.30;;;20.60;94.40;;;;;;5073880;28;20044;-74
2022/06/13 11:29:42;;;;;;;0.20;0.20;;;19.70;95.90;;;;;;5074152;28;20127;-76
2022/06/13 11:32:25;;;;;;;0.20;0.20;;;19.40;96.30;;;;;;5073734;28;20552;-79
2022/06/13 11:34:50;;;;;;;0.20;0.20;;;19.10;97.60;;;;;;5073617;28;20044;-78
2022/06/13 11:37:21;;;;;;;0.47;0.40;;;18.80;97.90;;;;;;5073869;28;20043;-74
2022/06/13 11:39:49;;;;;;;0.40;0.40;;;18.80;98.20;;;;;;5074055;28;20083;-76
2022/06/13 11:42:30;;;;;;;0.30;0.30;;;18.80;98.40;;;;;;5073493;28;20040;-78
2022/06/13 11:45:03;;;;;;;0.38;0.38;;;18.90;98.00;;;;;;5073525;28;20044;-77
2022/06/13 11:47:49;;;;;;;0.28;0.28;;;18.70;98.50;;;;;;5073295;28;20121;-78
2022/06/13 11:50:18;;;;;;;0.50;0.50;;;18.70;98.70;;;;;;5073448;28;20056;-73
2022/06/13 11:55:30;;;;;;;0.32;0.32;;;18.50;99.90;;;;;;5073358;28;20559;-76
2022/06/13 11:57:59;;;;;;;0.40;0.40;;;18.30;99.90;;;;;;5073439;28;20404;-75
2022/06/13 12:00:49;;;;;;;0.30;0.30;;;18.40;99.90;;;;;;5073895;28;20046;-73
2022/06/13 12:03:19;;;;;;;0.20;0.20;;;18.50;99.90;;;;;;5059274;28;20064;-74
2022/06/13 12:05:50;;;;;;;4.32;1.48;;;18.80;99.90;;;;;;5072928;28;20052;-74
2022/06/13 12:08:16;;;;;;;0.32;0.32;;;19.10;99.90;;;;;;5073283;28;20131;-76
2022/06/13 12:10:57;;;;;;;0.30;0.30;;;19.30;98.80;;;;;;5073157;28;20083;-73
2022/06/13 12:13:23;;;;;;;0.30;0.30;;;19.70;99.00;;;;;;5073224;28;20102;-76
2022/06/13 12:16:27;;;;;;;0.32;0.32;;;19.60;96.70;;;;;;5074215;28;20055;-74
2022/06/13 12:19:24;;;;;;;0.30;0.30;;;19.60;98.00;;;;;;5076977;28;20059;-75
2022/06/13 12:22:17;;;;;;;0.30;0.30;;;19.70;96.40;;;;;;5069401;28;20239;-79
2022/06/13 12:25:01;;;;;;;0.20;0.20;;;20.20;97.00;;;;;;5077010;28;20072;-75
2022/06/13 12:27:50;;;;;;;0.20;0.20;;;20.50;96.60;;;;;;5077202;28;20150;-75
2022/06/13 12:30:57;;;;;;;0.40;0.40;;;20.60;95.40;;;;;;5076787;28;20040;-77
2022/06/13 12:33:33;;;;;;;1.50;0.82;;;20.80;95.30;;;;;;5076259;28;20052;-77
2022/06/13 12:36:10;;;;;;;0.30;0.30;;;20.70;95.20;;;;;;5077103;28;20048;-77
2022/06/13 12:39:01;;;;;;;0.30;0.30;;;20.70;95.60;;;;;;5076594;28;20507;-75
2022/06/13 12:41:36;;;;;;;0.20;0.20;;;20.40;95.00;;;;;;5059027;28;20123;-76
2022/06/13 12:44:20;;;;;;;0.22;0.22;;;20.20;95.40;;;;;;5076557;28;20040;-77
2022/06/13 12:47:18;;;;;;;0.30;0.30;;;20.00;96.50;;;;;;5076755;28;20047;-76
2022/06/13 12:50:08;;;;;;;0.20;0.20;;;19.80;96.20;;;;;;5076513;28;20047;-80
2022/06/13 12:53:09;;;;;;;0.63;0.40;;;19.90;96.20;;;;;;5077038;28;20044;-75
2022/06/13 12:55:41;;;;;;;0.30;0.30;;;20.20;95.50;;;;;;5076447;28;20178;-75
2022/06/13 12:58:24;;;;;;;0.30;0.30;;;20.60;94.60;;;;;;5076513;28;20482;-78
2022/06/13 13:00:58;;;;;;;0.40;0.40;;;21.00;93.60;;;;;;5076190;28;20072;-76
2022/06/13 13:03:41;;;;;;;0.30;0.30;;;21.30;94.30;;;;;;5076825;28;20490;-79
2022/06/13 13:06:16;;;;;;;0.20;0.20;;;21.50;94.50;;;;;;5076748;28;20396;-78
2022/06/13 13:09:23;;;;;;;0.20;0.20;;;21.50;93.80;;;;;;5076271;28;20091;-76
2022/06/13 13:12:20;;;;;;;0.30;0.30;;;21.40;94.80;;;;;;5045080;28;20052;-75
2022/06/13 13:15:11;;;;;;;0.20;0.20;;;21.30;95.30;;;;;;5076278;28;20399;-75
2022/06/13 13:17:48;;;;;;;0.40;0.30;;;21.20;94.40;;;;;;5075955;28;20286;-75
2022/06/13 13:20:27;;;;;;;0.30;0.30;;;21.40;93.90;;;;;;5076244;28;20095;-77
2022/06/13 13:23:18;;;;;;;0.20;0.20;;;21.30;93.70;;;;;;5076058;28;20468;-74
2022/06/13 13:25:56;;;;;;;1.58;0.65;;;21.20;94.60;;;;;;5075968;28;20036;-77
2022/06/13 13:28:53;;;;;;;0.20;0.20;;;20.90;94.90;;;;;;5075105;28;20435;-74
2022/06/13 13:31:31;;;;;;;0.20;0.20;;;20.70;94.80;;;;;;5075264;28;20519;-75
2022/06/13 13:34:21;;;;;;;0.20;0.20;;;20.50;95.10;;;;;;5075876;28;20056;-77
2022/06/13 13:36:51;;;;;;;0.30;0.30;;;20.40;96.30;;;;;;5075395;28;20523;-79
2022/06/13 13:39:23;;;;;;;0.20;0.20;;;20.30;94.80;;;;;;5075887;28;20066;-75
2022/06/13 13:42:09;;;;;;;0.30;0.30;;;19.90;95.50;;;;;;5075805;28;20070;-75
2022/06/13 13:44:46;;;;;;;0.20;0.20;;;19.90;94.20;;;;;;5057527;28;20397;-77
2022/06/13 13:47:18;;;;;;;0.20;0.20;;;20.00;94.50;;;;;;5075310;28;20037;-75
2022/06/13 13:50:02;;;;;;;0.45;0.45;;;19.90;95.10;;;;;;5075326;28;20303;-77
2022/06/13 13:52:40;;;;;;;0.30;0.30;;;20.20;94.90;;;;;;5075264;28;20044;-79
2022/06/13 13:55:18;;;;;;;0.20;0.20;;;20.40;95.20;;;;;;5075117;28;20053;-76